Geyser, MT

9:59 PM MDT on September 01, 2014 (GMT -0600)
Malmstrom AFB | Change Station
CLOSE
Current Station
Airport
Location: Malmstrom AFB,
Elevation: 3527 ft
Nearby Weather Stations

Elev 3527 ft 47.50 °N, 111.19 °W | Updated 3 minutes ago

Clear
Clear
53 °F
Feels Like 53 °F
N
7
Wind Variable Wind from SW

Today
High -- | Low -- °F
--% Chance of Precip.
Yesterday
High -- | Low -- °F
Precip. -- in
6:40 AM 8:01 PM
Waxing Crescent, 47% visible
Pressure 29.94 in
Visibility 10.0 miles
Clouds Clear
Dew Point 38 °F
Humidity 57%
Rainfall 0.00 in
Snow Depth Not available.
UV 0 out of 12
Pollen 7.70 out of 12
Air Quality Not available.
Flu Activity Not available.
METAR KGFA 020356Z AUTO 23006KT 10SM CLR 12/03 A2993 RMK AO2 SLP136 T01180034

More Conditions Fewer Conditions

Pressure 29.94 in
Visibility 10.0 miles
Clouds Clear
Dew Point 38 °F
Humidity 57%
Rainfall 0.00 in
Snow Depth Not available.
UV 0 out of 12
Pollen 7.70 out of 12
Air Quality Not available.
Flu Activity Not available.
METAR KGFA 020356Z AUTO 23006KT 10SM CLR 12/03 A2993 RMK AO2 SLP136 T01180034

More Conditions Fewer Conditions

10-Day Weather Forecast

Almanac

Astronomy

Sep. 01, 2014 Rise Set
Actual Time 6:40 AM MDT 8:01 PM MDT
Civil Twilight 6:09 AM MDT 8:33 PM MDT
Nautical Twilight 5:30 AM MDT 9:11 PM MDT
Astronomical Twilight 4:49 AM MDT 9:52 PM MDT
Moon 1:57 PM MDT (9/1) 11:37 PM MDT (9/1)
Length of Visible Light 14h 23m
Length of Day
13h 20m
Tomorrow will be 3m 16s shorter.
Waxing Crescent, 47% of the Moon is Illuminated
Today
Waxing Crescent
Sep 2
First Quarter
Sep 8
Full
Sep 15
Last Quarter
Sep 24
New

Today's Extremes

State Highs State Lows

Community

WunderPhotos

Upload Photos

1,749,557 photos uploaded!

WunderBlogs® & News

Nearby

Snow Depth

Station Depth Elevation
Onion Park 0 in 7410 ft
Spur Park 0 in 8100 ft
Crystal Lake 0 in 6050 ft
Pickfoot Creek 0 in 6650 ft
Boulder Mountain 0 in 7950 ft

Earthquake Activity

City Distance Mag. Time & Date
No recent earthquake activity has been reported nearby.
Minimum magnitude displayed is 2.5.

Coastal Water Temperatures

Place Temperature
No Stations Reporting

Nearby Weather Stations